createdAt,value
2018-03-31T00:01:04.170Z,58.20
2018-03-31T00:03:31.666Z,58.30
2018-03-31T00:05:59.167Z,58.30
2018-03-31T00:08:25.911Z,58.30
2018-03-31T00:10:52.656Z,58.30
2018-03-31T00:13:19.391Z,58.30
2018-03-31T00:15:46.122Z,58.30
2018-03-31T00:18:12.856Z,58.30
2018-03-31T00:20:39.607Z,58.30
2018-03-31T00:23:06.335Z,58.30
2018-03-31T00:25:33.058Z,58.30
2018-03-31T00:27:59.803Z,58.30
2018-03-31T00:30:26.544Z,58.30
2018-03-31T00:32:53.288Z,58.30
2018-03-31T00:35:20.090Z,58.30
2018-03-31T00:37:47.595Z,58.30
2018-03-31T00:40:14.331Z,58.30
2018-03-31T00:42:41.124Z,58.30
2018-03-31T00:45:08.623Z,58.30
2018-03-31T00:47:35.364Z,58.30
2018-03-31T00:50:02.101Z,58.30
2018-03-31T00:52:28.850Z,58.20
2018-03-31T00:54:55.578Z,58.30
2018-03-31T00:57:22.312Z,58.30
2018-03-31T00:59:49.044Z,58.30
2018-03-31T01:02:15.783Z,58.30
2018-03-31T01:04:42.531Z,58.30
2018-03-31T01:07:09.268Z,58.30
2018-03-31T01:09:36.002Z,58.30
2018-03-31T01:12:02.739Z,58.30
2018-03-31T01:14:29.485Z,58.30
2018-03-31T01:16:56.218Z,58.30
2018-03-31T01:19:22.968Z,58.30
2018-03-31T01:21:49.703Z,58.40
2018-03-31T01:24:16.586Z,58.40
2018-03-31T01:26:43.507Z,58.40
2018-03-31T01:29:10.379Z,58.40
2018-03-31T01:31:37.218Z,58.30
2018-03-31T01:34:04.476Z,58.40
2018-03-31T01:36:32.144Z,58.50
2018-03-31T01:38:59.651Z,58.50
2018-03-31T01:41:26.486Z,58.50
2018-03-31T01:43:53.223Z,58.50
2018-03-31T01:46:19.959Z,58.50
2018-03-31T01:48:46.690Z,58.50
2018-03-31T01:51:14.239Z,58.50
2018-03-31T01:53:41.748Z,58.50
2018-03-31T01:56:08.487Z,58.40
2018-03-31T01:58:35.223Z,58.50
2018-03-31T02:01:01.959Z,58.50
2018-03-31T02:03:28.692Z,58.50
2018-03-31T02:05:55.435Z,58.50
2018-03-31T02:08:22.168Z,58.60
2018-03-31T02:10:48.912Z,58.50
2018-03-31T02:13:15.684Z,58.60
2018-03-31T02:15:42.451Z,58.60
2018-03-31T02:18:09.951Z,58.60
2018-03-31T02:20:36.694Z,58.50
2018-03-31T02:23:03.427Z,58.60
2018-03-31T02:25:30.179Z,58.60
2018-03-31T02:27:56.913Z,58.60
2018-03-31T02:30:23.650Z,58.60
2018-03-31T02:32:50.380Z,58.60
2018-03-31T02:35:17.111Z,58.70
2018-03-31T02:37:43.848Z,58.70
2018-03-31T02:40:10.588Z,58.60
2018-03-31T02:42:37.319Z,58.70
2018-03-31T02:45:04.053Z,58.60
2018-03-31T02:47:31.554Z,58.60
2018-03-31T02:49:58.299Z,58.70
2018-03-31T02:52:25.034Z,58.70
2018-03-31T02:54:51.772Z,58.70
2018-03-31T02:57:18.507Z,58.70
2018-03-31T02:59:45.249Z,58.70
2018-03-31T03:02:11.985Z,58.70
2018-03-31T03:04:38.719Z,58.70
2018-03-31T03:07:05.464Z,58.70
2018-03-31T03:09:32.354Z,58.70
2018-03-31T03:11:59.091Z,58.70
2018-03-31T03:14:25.819Z,58.60
2018-03-31T03:16:52.563Z,58.70
2018-03-31T03:19:19.294Z,58.80
2018-03-31T03:21:46.055Z,58.80
2018-03-31T03:24:13.559Z,58.80
2018-03-31T03:26:40.305Z,58.80
2018-03-31T03:29:07.044Z,58.80
2018-03-31T03:31:33.782Z,58.80
2018-03-31T03:34:00.516Z,58.80
2018-03-31T03:36:27.251Z,58.80
2018-03-31T03:38:53.988Z,58.80
2018-03-31T03:41:20.723Z,58.70
2018-03-31T03:43:47.586Z,58.90
2018-03-31T03:46:15.082Z,58.80
2018-03-31T03:48:42.862Z,59.40
2018-03-31T03:51:10.415Z,58.90
2018-03-31T03:53:37.984Z,58.90
2018-03-31T03:56:05.491Z,58.90
2018-03-31T03:58:32.218Z,58.80
2018-03-31T04:00:58.959Z,58.90
2018-03-31T04:03:25.752Z,58.90
2018-03-31T04:05:53.251Z,59.00
2018-03-31T04:08:19.987Z,58.90
2018-03-31T04:10:46.728Z,58.90
2018-03-31T04:13:13.464Z,58.90
2018-03-31T04:15:40.199Z,58.90
2018-03-31T04:18:06.935Z,58.90
2018-03-31T04:20:33.679Z,58.90
2018-03-31T04:23:00.426Z,58.90
2018-03-31T04:25:27.167Z,59.00
2018-03-31T04:27:53.894Z,58.90
2018-03-31T04:30:20.639Z,59.00
2018-03-31T04:32:47.371Z,58.90
2018-03-31T04:35:14.111Z,59.00
2018-03-31T04:37:40.838Z,59.00
2018-03-31T04:40:07.584Z,59.00
2018-03-31T04:42:34.316Z,59.00
2018-03-31T04:45:01.836Z,59.50
2018-03-31T04:47:28.567Z,58.90
2018-03-31T04:49:55.321Z,59.00
2018-03-31T04:52:22.059Z,59.00
2018-03-31T04:54:48.795Z,59.10
2018-03-31T04:57:15.530Z,59.10
2018-03-31T04:59:42.269Z,59.10
2018-03-31T05:02:09.034Z,59.10
2018-03-31T05:04:35.781Z,59.00
2018-03-31T05:07:03.282Z,59.10
2018-03-31T05:09:30.020Z,59.00
2018-03-31T05:11:56.835Z,59.10
2018-03-31T05:14:23.559Z,59.40
2018-03-31T05:16:51.080Z,59.10
2018-03-31T05:19:17.815Z,59.70
2018-03-31T05:21:44.562Z,59.10
2018-03-31T05:24:11.306Z,59.10
2018-03-31T05:26:38.059Z,59.20
2018-03-31T05:29:05.564Z,59.20
2018-03-31T05:31:32.316Z,59.10
2018-03-31T05:33:59.111Z,59.20
2018-03-31T05:36:26.625Z,59.20
2018-03-31T05:38:53.363Z,59.20
2018-03-31T05:41:20.124Z,59.10
2018-03-31T05:43:46.855Z,59.20
2018-03-31T05:46:13.595Z,59.10
2018-03-31T05:48:41.093Z,59.40
2018-03-31T05:51:08.599Z,59.20
2018-03-31T05:53:35.331Z,59.20
2018-03-31T05:56:02.088Z,59.20
2018-03-31T05:58:28.885Z,59.20
2018-03-31T06:00:55.651Z,59.20
2018-03-31T06:03:22.392Z,60.00
2018-03-31T06:05:49.473Z,60.00
2018-03-31T06:08:17.000Z,59.60
2018-03-31T06:10:43.744Z,59.60
2018-03-31T06:13:10.496Z,59.80
2018-03-31T06:15:37.232Z,59.80
2018-03-31T06:18:03.973Z,60.00
2018-03-31T06:20:30.723Z,59.70
2018-03-31T06:22:57.457Z,59.60
2018-03-31T06:25:24.208Z,59.50
2018-03-31T06:27:50.938Z,59.50
2018-03-31T06:30:17.687Z,59.80
2018-03-31T06:32:44.418Z,59.80
2018-03-31T06:35:11.163Z,59.80
2018-03-31T06:37:37.894Z,59.70
2018-03-31T06:40:04.630Z,59.70
2018-03-31T06:42:31.376Z,59.80
2018-03-31T06:44:58.137Z,59.80
2018-03-31T06:47:24.885Z,59.60
2018-03-31T06:49:52.488Z,59.70
2018-03-31T06:52:19.249Z,59.70
2018-03-31T06:54:46.024Z,59.80
2018-03-31T06:57:12.761Z,59.80
2018-03-31T06:59:40.266Z,59.80
2018-03-31T07:02:07.008Z,59.80
2018-03-31T07:04:33.745Z,59.80
2018-03-31T07:07:00.478Z,59.80
2018-03-31T07:09:27.229Z,59.70
2018-03-31T07:11:53.977Z,59.70
2018-03-31T07:14:20.713Z,59.80
2018-03-31T07:16:47.458Z,59.70
2018-03-31T07:19:14.213Z,59.70
2018-03-31T07:21:40.951Z,59.70
2018-03-31T07:24:07.684Z,59.80
2018-03-31T07:26:35.187Z,59.80
2018-03-31T07:29:01.930Z,59.80
2018-03-31T07:31:28.655Z,59.90
2018-03-31T07:33:56.158Z,59.90
2018-03-31T07:36:22.895Z,59.80
2018-03-31T07:38:49.631Z,59.80
2018-03-31T07:41:16.359Z,59.80
2018-03-31T07:43:43.102Z,59.80
2018-03-31T07:46:09.838Z,59.80
2018-03-31T07:48:36.571Z,59.80
2018-03-31T07:51:03.302Z,59.80
2018-03-31T07:53:31.071Z,59.80
2018-03-31T07:55:57.819Z,59.80
2018-03-31T07:58:24.555Z,59.80
2018-03-31T08:00:51.287Z,59.80
2018-03-31T08:03:18.019Z,59.90
2018-03-31T08:05:44.756Z,60.00
2018-03-31T08:08:12.260Z,59.80
2018-03-31T08:10:38.997Z,59.80
2018-03-31T08:13:05.739Z,59.80
2018-03-31T08:15:32.467Z,59.90
2018-03-31T08:17:59.202Z,60.00
2018-03-31T08:20:26.003Z,60.00
2018-03-31T08:22:53.499Z,59.90
2018-03-31T08:25:20.235Z,59.80
2018-03-31T08:27:46.971Z,60.00
2018-03-31T08:30:13.712Z,59.90
2018-03-31T08:32:40.451Z,59.90
2018-03-31T08:35:07.192Z,60.00
2018-03-31T08:37:33.926Z,60.00
2018-03-31T08:40:00.673Z,60.00
2018-03-31T08:42:27.419Z,59.80
2018-03-31T08:44:54.152Z,60.00
2018-03-31T08:47:20.893Z,60.00
2018-03-31T08:49:47.667Z,60.00
2018-03-31T08:52:14.428Z,60.00
2018-03-31T08:54:41.931Z,60.10
2018-03-31T08:57:08.663Z,60.00
2018-03-31T08:59:35.418Z,60.10
2018-03-31T09:02:02.177Z,60.30
2018-03-31T09:04:29.216Z,60.40
2018-03-31T09:06:55.957Z,60.10
2018-03-31T09:09:22.985Z,60.00
2018-03-31T09:11:49.719Z,60.00
2018-03-31T09:14:16.500Z,60.10
2018-03-31T09:16:43.218Z,60.10
2018-03-31T09:19:11.205Z,61.00
2018-03-31T09:21:37.935Z,60.10
2018-03-31T09:24:04.885Z,60.00
2018-03-31T09:26:31.624Z,60.10
2018-03-31T09:28:58.387Z,60.10
2018-03-31T09:31:25.140Z,60.10
2018-03-31T09:33:52.644Z,60.10
2018-03-31T09:36:19.398Z,60.00
2018-03-31T09:38:46.173Z,60.60
2018-03-31T09:41:13.792Z,60.80
2018-03-31T09:43:40.527Z,60.70
2018-03-31T09:46:07.278Z,60.80
2018-03-31T09:48:34.011Z,60.60
2018-03-31T09:51:00.761Z,60.60
2018-03-31T09:53:27.496Z,60.80
2018-03-31T09:55:55.304Z,60.40
2018-03-31T09:58:22.855Z,60.70
2018-03-31T10:00:56.044Z,60.80
2018-03-31T10:03:23.543Z,60.70
2018-03-31T10:05:50.297Z,60.80
2018-03-31T10:08:17.075Z,60.80
2018-03-31T10:10:43.839Z,60.80
2018-03-31T10:13:10.574Z,60.80
2018-03-31T10:15:38.119Z,60.80
2018-03-31T10:18:05.626Z,60.80
2018-03-31T10:20:32.423Z,60.70
2018-03-31T10:22:59.976Z,60.70
2018-03-31T10:25:27.488Z,60.70
2018-03-31T10:27:54.219Z,60.80
2018-03-31T10:30:20.957Z,60.70
2018-03-31T10:32:47.703Z,60.80
2018-03-31T10:35:14.553Z,61.60
2018-03-31T10:37:41.238Z,61.20
2018-03-31T10:40:08.735Z,60.70
2018-03-31T10:42:35.482Z,60.70
2018-03-31T10:45:02.219Z,60.70
2018-03-31T10:47:29.030Z,60.70
2018-03-31T10:49:55.707Z,60.70
2018-03-31T10:52:23.216Z,60.70
2018-03-31T10:54:50.775Z,60.70
2018-03-31T10:57:18.291Z,62.10
2018-03-31T10:59:45.027Z,61.90
2018-03-31T11:02:11.764Z,60.70
2018-03-31T11:04:38.499Z,60.70
2018-03-31T11:07:07.032Z,60.80
2018-03-31T11:09:34.545Z,60.80
2018-03-31T11:12:01.280Z,61.50
2018-03-31T11:14:28.027Z,61.70
2018-03-31T11:16:54.963Z,61.70
2018-03-31T11:19:21.694Z,61.50
2018-03-31T11:21:48.440Z,61.00
2018-03-31T11:24:15.178Z,62.10
2018-03-31T11:26:41.920Z,60.90
2018-03-31T11:29:08.659Z,60.80
2018-03-31T11:31:35.397Z,60.80
2018-03-31T11:34:02.150Z,60.80
2018-03-31T11:36:28.919Z,60.80
2018-03-31T11:38:56.494Z,60.80
2018-03-31T11:41:23.982Z,60.80
2018-03-31T11:43:50.773Z,60.80
2018-03-31T11:46:17.507Z,60.80
2018-03-31T11:48:44.239Z,61.80
2018-03-31T11:51:11.959Z,60.80
2018-03-31T11:53:38.701Z,61.10
2018-03-31T11:56:05.435Z,60.80
2018-03-31T11:58:35.880Z,61.40
2018-03-31T12:01:02.625Z,61.40
2018-03-31T12:03:30.124Z,62.30
2018-03-31T12:05:57.683Z,62.50
2018-03-31T12:08:26.263Z,64.20
2018-03-31T12:10:53.775Z,65.60
2018-03-31T12:13:20.567Z,65.70
2018-03-31T12:15:48.131Z,62.40
2018-03-31T12:18:15.636Z,62.30
2018-03-31T12:20:42.432Z,62.20
2018-03-31T12:23:11.013Z,62.90
2018-03-31T12:25:38.584Z,62.00
2018-03-31T12:28:05.319Z,62.00
2018-03-31T12:30:32.068Z,61.40
2018-03-31T12:32:58.828Z,61.50
2018-03-31T12:35:25.588Z,61.90
2018-03-31T12:37:52.364Z,62.00
2018-03-31T12:40:19.872Z,61.70
2018-03-31T12:42:46.675Z,61.60
2018-03-31T12:45:14.179Z,62.70
2018-03-31T12:47:40.924Z,62.60
2018-03-31T12:50:07.663Z,61.50
2018-03-31T12:52:35.171Z,61.50
2018-03-31T12:55:01.909Z,61.00
2018-03-31T12:57:29.436Z,61.90
2018-03-31T12:59:56.158Z,61.80
2018-03-31T13:02:22.897Z,61.00
2018-03-31T13:04:50.605Z,61.00
2018-03-31T13:07:18.120Z,62.10
2018-03-31T13:09:44.860Z,61.90
2018-03-31T13:12:11.613Z,63.50
2018-03-31T13:14:39.156Z,61.90
2018-03-31T13:17:11.464Z,62.00
2018-03-31T13:19:42.107Z,61.80
2018-03-31T13:22:09.983Z,61.50
2018-03-31T13:24:36.818Z,61.50
2018-03-31T13:27:03.560Z,61.80
2018-03-31T13:29:30.315Z,61.70
2018-03-31T13:31:57.050Z,62.30
2018-03-31T13:34:23.797Z,61.70
2018-03-31T13:36:50.537Z,62.10
2018-03-31T13:39:17.343Z,61.80
2018-03-31T13:41:44.849Z,62.10
2018-03-31T13:44:11.591Z,61.90
2018-03-31T13:46:38.328Z,62.20
2018-03-31T13:49:05.079Z,61.90
2018-03-31T13:51:31.811Z,61.20
2018-03-31T13:53:58.603Z,61.20
2018-03-31T13:56:26.109Z,62.10
2018-03-31T13:58:52.862Z,62.10
2018-03-31T14:01:19.592Z,61.20
2018-03-31T14:03:46.327Z,61.20
2018-03-31T14:06:13.067Z,62.10
2018-03-31T14:08:39.804Z,61.40
2018-03-31T14:11:06.603Z,61.40
2018-03-31T14:13:34.108Z,61.30
2018-03-31T14:16:00.847Z,61.10
2018-03-31T14:18:28.647Z,61.20
2018-03-31T14:20:56.163Z,61.20
2018-03-31T14:23:22.911Z,61.10
2018-03-31T14:25:49.651Z,61.20
2018-03-31T14:28:16.392Z,61.20
2018-03-31T14:30:43.124Z,61.20
2018-03-31T14:33:09.868Z,61.40
2018-03-31T14:35:36.599Z,61.20
2018-03-31T14:38:03.335Z,61.50
2018-03-31T14:40:30.079Z,63.90
2018-03-31T14:42:56.867Z,61.50
2018-03-31T14:45:24.423Z,61.30
2018-03-31T14:47:51.928Z,62.10
2018-03-31T14:50:18.733Z,61.10
2018-03-31T14:52:46.240Z,61.50
2018-03-31T14:55:13.028Z,61.40
2018-03-31T14:57:42.128Z,62.40
2018-03-31T15:00:09.634Z,62.10
2018-03-31T15:02:36.368Z,62.00
2018-03-31T15:05:03.116Z,61.60
2018-03-31T15:07:29.899Z,61.70
2018-03-31T15:09:57.390Z,61.40
2018-03-31T15:12:24.132Z,61.30
2018-03-31T15:14:50.926Z,61.00
2018-03-31T15:17:17.676Z,61.40
2018-03-31T15:19:45.183Z,61.80
2018-03-31T15:22:11.935Z,61.70
2018-03-31T15:24:38.681Z,61.80
2018-03-31T15:27:05.435Z,62.40
2018-03-31T15:29:32.169Z,62.20
2018-03-31T15:31:58.907Z,62.30
2018-03-31T15:34:25.668Z,62.30
2018-03-31T15:36:53.224Z,62.20
2018-03-31T15:39:20.756Z,61.40
2018-03-31T15:41:47.513Z,61.90
2018-03-31T15:44:14.243Z,61.80
2018-03-31T15:46:41.032Z,61.70
2018-03-31T15:49:07.827Z,61.50
2018-03-31T15:51:34.560Z,61.60
2018-03-31T15:54:02.285Z,61.60
2018-03-31T15:56:29.018Z,61.60
2018-03-31T15:58:55.759Z,61.60
2018-03-31T16:01:22.496Z,61.60
2018-03-31T16:03:49.331Z,61.60
2018-03-31T16:06:16.147Z,61.50
2018-03-31T16:08:43.647Z,61.70
2018-03-31T16:11:10.384Z,61.70
2018-03-31T16:13:37.182Z,61.60
2018-03-31T16:16:04.694Z,61.90
2018-03-31T16:18:31.424Z,61.50
2018-03-31T16:20:58.241Z,61.50
2018-03-31T16:23:25.783Z,61.50
2018-03-31T16:25:53.283Z,62.10
2018-03-31T16:28:20.025Z,61.90
2018-03-31T16:30:46.763Z,61.70
2018-03-31T16:33:13.499Z,62.00
2018-03-31T16:35:40.226Z,61.70
2018-03-31T16:38:06.966Z,61.70
2018-03-31T16:40:33.706Z,61.50
2018-03-31T16:43:00.443Z,62.00
2018-03-31T16:45:27.271Z,61.90
2018-03-31T16:47:54.867Z,61.50
2018-03-31T16:50:21.604Z,61.60
2018-03-31T16:52:48.400Z,61.60
2018-03-31T16:55:15.200Z,61.60
2018-03-31T16:57:41.939Z,61.30
2018-03-31T17:00:08.729Z,61.30
2018-03-31T17:02:36.240Z,61.10
2018-03-31T17:05:03.099Z,61.10
2018-03-31T17:07:32.319Z,61.40
2018-03-31T17:09:59.874Z,61.40
2018-03-31T17:12:28.479Z,61.90
2018-03-31T17:14:56.089Z,61.50
2018-03-31T17:17:22.870Z,61.50
2018-03-31T17:19:50.427Z,61.60
2018-03-31T17:22:17.982Z,61.70
2018-03-31T17:24:45.548Z,61.50
2018-03-31T17:27:16.584Z,61.50
2018-03-31T17:29:44.145Z,61.60
2018-03-31T17:32:11.653Z,61.50
2018-03-31T17:34:38.444Z,61.50
2018-03-31T17:37:05.952Z,61.50
2018-03-31T17:39:32.701Z,61.40
2018-03-31T17:41:59.445Z,61.60
2018-03-31T17:44:26.184Z,61.60
2018-03-31T17:46:52.934Z,61.60
2018-03-31T17:49:19.699Z,61.50
2018-03-31T17:51:47.210Z,61.60
2018-03-31T17:54:13.957Z,61.60
2018-03-31T17:56:40.700Z,61.50
2018-03-31T17:59:07.428Z,61.50
2018-03-31T18:01:34.219Z,61.60
2018-03-31T18:04:01.729Z,61.50
2018-03-31T18:06:28.526Z,61.40
2018-03-31T18:08:55.264Z,61.40
2018-03-31T18:11:22.108Z,61.40
2018-03-31T18:13:48.936Z,61.40
2018-03-31T18:16:16.447Z,61.40
2018-03-31T18:18:43.278Z,61.30
2018-03-31T18:21:10.115Z,61.40
2018-03-31T18:23:36.924Z,61.40
2018-03-31T18:26:04.645Z,61.50
2018-03-31T18:28:31.393Z,61.40
2018-03-31T18:30:58.320Z,61.50
2018-03-31T18:33:25.205Z,61.40
2018-03-31T18:35:53.872Z,61.50
2018-03-31T18:38:20.640Z,61.40
2018-03-31T18:40:48.201Z,61.40
2018-03-31T18:43:15.860Z,61.50
2018-03-31T18:45:42.659Z,61.40
2018-03-31T18:48:10.127Z,61.40
2018-03-31T18:50:38.963Z,61.40
2018-03-31T18:53:05.961Z,61.40
2018-03-31T18:55:32.756Z,61.40
2018-03-31T18:57:59.683Z,61.90
2018-03-31T19:00:26.593Z,61.40
2018-03-31T19:02:53.333Z,61.40
2018-03-31T19:05:20.102Z,61.40
2018-03-31T19:07:47.658Z,61.40
2018-03-31T19:10:16.247Z,61.40
2018-03-31T19:12:43.744Z,61.40
2018-03-31T19:15:10.495Z,61.40
2018-03-31T19:17:37.234Z,61.30
2018-03-31T19:20:04.089Z,61.30
2018-03-31T19:22:30.826Z,61.40
2018-03-31T19:25:03.296Z,61.40
2018-03-31T19:27:30.083Z,61.30
2018-03-31T19:29:56.852Z,61.30
2018-03-31T19:32:23.652Z,61.30
2018-03-31T19:34:51.156Z,61.40
2018-03-31T19:37:18.131Z,61.30
2018-03-31T19:39:50.659Z,61.30
2018-03-31T19:42:18.228Z,61.40
2018-03-31T19:44:45.026Z,61.20
2018-03-31T19:47:11.807Z,61.30
2018-03-31T19:49:39.661Z,61.20
2018-03-31T19:52:06.425Z,61.30
2018-03-31T19:54:34.246Z,61.30
2018-03-31T19:57:01.750Z,61.40
2018-03-31T19:59:28.491Z,61.20
2018-03-31T20:01:55.247Z,61.40
2018-03-31T20:04:21.996Z,61.30
2018-03-31T20:06:48.885Z,61.30
2018-03-31T20:09:15.704Z,61.30
2018-03-31T20:11:43.408Z,61.20
2018-03-31T20:14:10.286Z,61.30
2018-03-31T20:16:37.179Z,61.20
2018-03-31T20:19:04.004Z,61.30
2018-03-31T20:21:31.564Z,61.30
2018-03-31T20:23:58.517Z,61.30
2018-03-31T20:26:25.448Z,61.30
2018-03-31T20:28:53.176Z,61.40
2018-03-31T20:31:20.060Z,61.30
2018-03-31T20:33:46.833Z,61.40
2018-03-31T20:36:14.658Z,61.40
2018-03-31T20:38:42.325Z,61.30
2018-03-31T20:41:09.187Z,61.30
2018-03-31T20:43:35.951Z,61.40
2018-03-31T20:46:02.689Z,61.30
2018-03-31T20:48:29.564Z,61.30
2018-03-31T20:50:56.488Z,61.40
2018-03-31T20:53:23.735Z,61.30
2018-03-31T20:55:50.667Z,62.30
2018-03-31T20:58:17.428Z,61.30
2018-03-31T21:00:44.256Z,61.40
2018-03-31T21:03:11.044Z,61.40
2018-03-31T21:05:38.576Z,61.30
2018-03-31T21:08:05.320Z,61.30
2018-03-31T21:10:32.083Z,61.40
2018-03-31T21:12:59.584Z,61.40
2018-03-31T21:15:26.328Z,61.40
2018-03-31T21:17:53.058Z,61.40
2018-03-31T21:20:19.816Z,61.40
2018-03-31T21:22:46.548Z,61.40
2018-03-31T21:25:13.284Z,61.40
2018-03-31T21:27:40.019Z,61.40
2018-03-31T21:30:06.755Z,61.40
2018-03-31T21:32:33.496Z,61.40
2018-03-31T21:35:00.233Z,61.40
2018-03-31T21:37:26.968Z,61.40
2018-03-31T21:39:53.707Z,61.50
2018-03-31T21:42:20.444Z,61.50
2018-03-31T21:44:47.177Z,61.40
2018-03-31T21:47:13.925Z,61.40
2018-03-31T21:49:40.657Z,61.50
2018-03-31T21:52:07.398Z,61.50
2018-03-31T21:54:34.136Z,61.50
2018-03-31T21:57:00.884Z,61.50
2018-03-31T21:59:27.624Z,61.50
2018-03-31T22:01:54.367Z,61.50
2018-03-31T22:04:21.103Z,61.50
2018-03-31T22:06:47.851Z,61.50
2018-03-31T22:09:14.583Z,61.50
2018-03-31T22:11:41.320Z,61.50
2018-03-31T22:14:13.894Z,61.50
2018-03-31T22:16:40.631Z,61.50
2018-03-31T22:19:07.377Z,61.60
2018-03-31T22:21:34.112Z,61.60
2018-03-31T22:24:00.851Z,61.60
2018-03-31T22:26:27.591Z,61.60
2018-03-31T22:28:54.328Z,61.60
2018-03-31T22:31:21.073Z,61.60
2018-03-31T22:33:47.829Z,61.50
2018-03-31T22:36:14.582Z,61.60
2018-03-31T22:38:42.375Z,61.60
2018-03-31T22:41:09.878Z,61.60
2018-03-31T22:43:36.620Z,61.60
2018-03-31T22:46:03.362Z,61.50
2018-03-31T22:48:30.094Z,61.60
2018-03-31T22:50:56.832Z,61.40
2018-03-31T22:53:23.571Z,61.40
2018-03-31T22:55:50.311Z,61.50
2018-03-31T22:58:17.059Z,61.60
2018-03-31T23:00:43.795Z,61.40
2018-03-31T23:03:10.534Z,61.40
2018-03-31T23:05:37.263Z,61.40
2018-03-31T23:08:03.998Z,61.40
2018-03-31T23:10:30.735Z,61.50
2018-03-31T23:12:57.470Z,61.30
2018-03-31T23:15:24.215Z,61.40
2018-03-31T23:17:50.946Z,61.40
2018-03-31T23:20:17.790Z,61.30
2018-03-31T23:22:44.530Z,61.40
2018-03-31T23:25:11.283Z,61.40
2018-03-31T23:27:38.044Z,61.50
2018-03-31T23:30:05.536Z,61.40
2018-03-31T23:32:32.276Z,61.40
2018-03-31T23:34:59.007Z,62.00
2018-03-31T23:37:25.739Z,61.30
2018-03-31T23:39:52.478Z,61.30
2018-03-31T23:42:19.207Z,61.40
2018-03-31T23:44:45.940Z,61.30
2018-03-31T23:47:12.674Z,62.20
2018-03-31T23:49:39.420Z,61.20
2018-03-31T23:52:06.155Z,61.10
2018-03-31T23:54:32.891Z,61.20
2018-03-31T23:56:59.632Z,61.10
2018-03-31T23:59:26.369Z,61.10
